sensor_id;sensor_type;location;lat;lon;timestamp;temperature;humidity
17728;DHT22;8984;49.268;12.302;2023-06-14T00:01:14;17.30;96.80
17728;DHT22;8984;49.268;12.302;2023-06-14T00:03:41;17.30;96.90
17728;DHT22;8984;49.268;12.302;2023-06-14T00:06:07;17.20;97.00
17728;DHT22;8984;49.268;12.302;2023-06-14T00:08:34;17.00;97.40
17728;DHT22;8984;49.268;12.302;2023-06-14T00:11:01;17.00;97.20
17728;DHT22;8984;49.268;12.302;2023-06-14T00:13:28;17.10;97.20
17728;DHT22;8984;49.268;12.302;2023-06-14T00:15:56;17.10;97.10
17728;DHT22;8984;49.268;12.302;2023-06-14T00:18:23;17.10;96.90
17728;DHT22;8984;49.268;12.302;2023-06-14T00:20:51;17.20;96.70
17728;DHT22;8984;49.268;12.302;2023-06-14T00:23:18;17.20;96.80
17728;DHT22;8984;49.268;12.302;2023-06-14T00:25:47;17.20;96.50
17728;DHT22;8984;49.268;12.302;2023-06-14T00:28:14;17.20;96.70
17728;DHT22;8984;49.268;12.302;2023-06-14T00:30:41;17.20;96.60
17728;DHT22;8984;49.268;12.302;2023-06-14T00:33:10;17.20;96.60
17728;DHT22;8984;49.268;12.302;2023-06-14T00:35:37;17.30;96.60
17728;DHT22;8984;49.268;12.302;2023-06-14T00:38:04;17.30;96.60
17728;DHT22;8984;49.268;12.302;2023-06-14T00:40:31;17.30;96.80
17728;DHT22;8984;49.268;12.302;2023-06-14T00:42:58;17.40;97.10
17728;DHT22;8984;49.268;12.302;2023-06-14T00:45:24;17.40;97.30
17728;DHT22;8984;49.268;12.302;2023-06-14T00:47:51;17.50;97.30
17728;DHT22;8984;49.268;12.302;2023-06-14T00:50:22;17.50;97.20
17728;DHT22;8984;49.268;12.302;2023-06-14T00:52:49;17.50;97.00
17728;DHT22;8984;49.268;12.302;2023-06-14T00:55:16;17.50;96.90
17728;DHT22;8984;49.268;12.302;2023-06-14T00:57:43;17.50;96.80
17728;DHT22;8984;49.268;12.302;2023-06-14T01:00:12;17.40;96.80
17728;DHT22;8984;49.268;12.302;2023-06-14T01:02:40;17.40;96.80
17728;DHT22;8984;49.268;12.302;2023-06-14T01:05:07;17.30;96.70
17728;DHT22;8984;49.268;12.302;2023-06-14T01:07:44;17.40;96.50
17728;DHT22;8984;49.268;12.302;2023-06-14T01:10:23;17.40;96.50
17728;DHT22;8984;49.268;12.302;2023-06-14T01:12:58;17.40;96.90
17728;DHT22;8984;49.268;12.302;2023-06-14T01:15:27;17.40;97.00
17728;DHT22;8984;49.268;12.302;2023-06-14T01:17:54;17.40;97.00
17728;DHT22;8984;49.268;12.302;2023-06-14T01:20:29;17.40;97.00
17728;DHT22;8984;49.268;12.302;2023-06-14T01:22:58;17.40;96.90
17728;DHT22;8984;49.268;12.302;2023-06-14T01:25:25;17.40;96.90
17728;DHT22;8984;49.268;12.302;2023-06-14T01:27:53;17.50;96.50
17728;DHT22;8984;49.268;12.302;2023-06-14T01:30:23;17.50;96.30
17728;DHT22;8984;49.268;12.302;2023-06-14T01:32:52;17.50;96.40
17728;DHT22;8984;49.268;12.302;2023-06-14T01:35:20;17.50;96.40
17728;DHT22;8984;49.268;12.302;2023-06-14T01:37:48;17.40;96.40
17728;DHT22;8984;49.268;12.302;2023-06-14T01:40:18;17.40;96.80
17728;DHT22;8984;49.268;12.302;2023-06-14T01:42:46;17.40;97.00
17728;DHT22;8984;49.268;12.302;2023-06-14T01:45:14;17.30;97.30
17728;DHT22;8984;49.268;12.302;2023-06-14T01:47:42;17.20;97.10
17728;DHT22;8984;49.268;12.302;2023-06-14T01:50:10;17.10;97.10
17728;DHT22;8984;49.268;12.302;2023-06-14T01:52:37;17.00;97.30
17728;DHT22;8984;49.268;12.302;2023-06-14T01:55:04;17.10;96.90
17728;DHT22;8984;49.268;12.302;2023-06-14T01:57:33;17.10;96.70
17728;DHT22;8984;49.268;12.302;2023-06-14T02:00:00;17.10;96.80
17728;DHT22;8984;49.268;12.302;2023-06-14T02:02:27;17.10;96.40
17728;DHT22;8984;49.268;12.302;2023-06-14T02:04:53;17.10;96.50
17728;DHT22;8984;49.268;12.302;2023-06-14T02:07:22;17.00;96.40
17728;DHT22;8984;49.268;12.302;2023-06-14T02:09:50;17.00;96.30
17728;DHT22;8984;49.268;12.302;2023-06-14T02:12:17;16.90;96.30
17728;DHT22;8984;49.268;12.302;2023-06-14T02:14:45;16.90;96.40
17728;DHT22;8984;49.268;12.302;2023-06-14T02:17:12;16.90;96.20
17728;DHT22;8984;49.268;12.302;2023-06-14T02:19:38;16.90;96.10
17728;DHT22;8984;49.268;12.302;2023-06-14T02:22:06;16.90;96.20
17728;DHT22;8984;49.268;12.302;2023-06-14T02:24:33;16.90;96.20
17728;DHT22;8984;49.268;12.302;2023-06-14T02:27:01;16.90;96.10
17728;DHT22;8984;49.268;12.302;2023-06-14T02:29:27;17.00;96.00
17728;DHT22;8984;49.268;12.302;2023-06-14T02:31:55;17.00;95.90
17728;DHT22;8984;49.268;12.302;2023-06-14T02:34:22;17.00;95.90
17728;DHT22;8984;49.268;12.302;2023-06-14T02:36:50;16.90;96.10
17728;DHT22;8984;49.268;12.302;2023-06-14T02:39:18;16.90;96.20
17728;DHT22;8984;49.268;12.302;2023-06-14T02:41:46;16.90;97.10
17728;DHT22;8984;49.268;12.302;2023-06-14T02:44:13;16.90;97.70
17728;DHT22;8984;49.268;12.302;2023-06-14T02:46:40;16.70;97.90
17728;DHT22;8984;49.268;12.302;2023-06-14T02:49:10;16.50;97.60
17728;DHT22;8984;49.268;12.302;2023-06-14T02:51:37;16.50;97.30
17728;DHT22;8984;49.268;12.302;2023-06-14T02:54:03;16.50;97.60
17728;DHT22;8984;49.268;12.302;2023-06-14T02:56:30;16.50;97.50
17728;DHT22;8984;49.268;12.302;2023-06-14T02:58:57;16.50;97.30
17728;DHT22;8984;49.268;12.302;2023-06-14T03:01:25;16.40;97.10
17728;DHT22;8984;49.268;12.302;2023-06-14T03:03:59;16.40;97.10
17728;DHT22;8984;49.268;12.302;2023-06-14T03:06:27;16.30;97.40
17728;DHT22;8984;49.268;12.302;2023-06-14T03:08:55;16.30;97.70
17728;DHT22;8984;49.268;12.302;2023-06-14T03:11:24;16.20;97.90
17728;DHT22;8984;49.268;12.302;2023-06-14T03:13:51;16.10;98.00
17728;DHT22;8984;49.268;12.302;2023-06-14T03:16:18;16.10;98.00
17728;DHT22;8984;49.268;12.302;2023-06-14T03:18:45;16.10;98.10
17728;DHT22;8984;49.268;12.302;2023-06-14T03:21:11;16.10;98.00
17728;DHT22;8984;49.268;12.302;2023-06-14T03:23:39;16.10;97.90
17728;DHT22;8984;49.268;12.302;2023-06-14T03:26:06;16.10;98.10
17728;DHT22;8984;49.268;12.302;2023-06-14T03:28:33;16.00;98.30
17728;DHT22;8984;49.268;12.302;2023-06-14T03:31:00;15.90;98.60
17728;DHT22;8984;49.268;12.302;2023-06-14T03:33:27;15.90;98.70
17728;DHT22;8984;49.268;12.302;2023-06-14T03:35:54;15.90;98.80
17728;DHT22;8984;49.268;12.302;2023-06-14T03:38:21;15.90;99.00
17728;DHT22;8984;49.268;12.302;2023-06-14T03:40:50;15.90;99.00
17728;DHT22;8984;49.268;12.302;2023-06-14T03:43:16;15.90;99.20
17728;DHT22;8984;49.268;12.302;2023-06-14T03:45:43;15.80;99.10
17728;DHT22;8984;49.268;12.302;2023-06-14T03:48:10;15.80;99.10
17728;DHT22;8984;49.268;12.302;2023-06-14T03:50:36;15.80;99.20
17728;DHT22;8984;49.268;12.302;2023-06-14T03:53:03;15.90;99.10
17728;DHT22;8984;49.268;12.302;2023-06-14T03:55:30;16.10;99.20
17728;DHT22;8984;49.268;12.302;2023-06-14T03:58:00;16.50;99.00
17728;DHT22;8984;49.268;12.302;2023-06-14T04:00:26;17.00;98.50
17728;DHT22;8984;49.268;12.302;2023-06-14T04:02:53;17.50;97.90
17728;DHT22;8984;49.268;12.302;2023-06-14T04:05:20;17.90;97.60
17728;DHT22;8984;49.268;12.302;2023-06-14T04:07:47;18.40;97.20
17728;DHT22;8984;49.268;12.302;2023-06-14T04:10:15;18.60;96.50
17728;DHT22;8984;49.268;12.302;2023-06-14T04:12:42;18.60;96.50
17728;DHT22;8984;49.268;12.302;2023-06-14T04:15:10;18.40;96.60
17728;DHT22;8984;49.268;12.302;2023-06-14T04:17:38;18.20;97.00
17728;DHT22;8984;49.268;12.302;2023-06-14T04:20:06;18.20;97.20
17728;DHT22;8984;49.268;12.302;2023-06-14T04:22:35;18.00;97.40
17728;DHT22;8984;49.268;12.302;2023-06-14T04:25:02;18.10;97.50
17728;DHT22;8984;49.268;12.302;2023-06-14T04:27:31;18.20;97.20
17728;DHT22;8984;49.268;12.302;2023-06-14T04:30:01;18.20;97.30
17728;DHT22;8984;49.268;12.302;2023-06-14T04:32:30;18.30;97.30
17728;DHT22;8984;49.268;12.302;2023-06-14T04:34:59;18.20;97.00
17728;DHT22;8984;49.268;12.302;2023-06-14T04:37:27;18.40;97.30
17728;DHT22;8984;49.268;12.302;2023-06-14T04:39:54;18.50;97.40
17728;DHT22;8984;49.268;12.302;2023-06-14T04:42:22;19.10;97.50
17728;DHT22;8984;49.268;12.302;2023-06-14T04:44:51;19.70;96.30
17728;DHT22;8984;49.268;12.302;2023-06-14T04:47:20;20.30;95.50
17728;DHT22;8984;49.268;12.302;2023-06-14T04:49:49;20.70;94.80
17728;DHT22;8984;49.268;12.302;2023-06-14T04:52:17;20.90;94.60
17728;DHT22;8984;49.268;12.302;2023-06-14T04:54:46;21.20;94.60
17728;DHT22;8984;49.268;12.302;2023-06-14T04:57:13;21.50;93.80
17728;DHT22;8984;49.268;12.302;2023-06-14T04:59:43;21.90;93.40
17728;DHT22;8984;49.268;12.302;2023-06-14T05:02:10;21.90;93.50
17728;DHT22;8984;49.268;12.302;2023-06-14T05:04:37;21.90;93.40
17728;DHT22;8984;49.268;12.302;2023-06-14T05:07:06;21.90;93.20
17728;DHT22;8984;49.268;12.302;2023-06-14T05:09:33;21.80;93.10
17728;DHT22;8984;49.268;12.302;2023-06-14T05:12:00;21.70;93.30
17728;DHT22;8984;49.268;12.302;2023-06-14T05:14:27;21.60;93.30
17728;DHT22;8984;49.268;12.302;2023-06-14T05:16:54;21.50;93.50
17728;DHT22;8984;49.268;12.302;2023-06-14T05:19:20;21.30;93.60
17728;DHT22;8984;49.268;12.302;2023-06-14T05:21:47;21.30;94.00
17728;DHT22;8984;49.268;12.302;2023-06-14T05:24:15;21.60;93.80
17728;DHT22;8984;49.268;12.302;2023-06-14T05:26:43;21.80;93.60
17728;DHT22;8984;49.268;12.302;2023-06-14T05:29:10;21.90;93.10
17728;DHT22;8984;49.268;12.302;2023-06-14T05:31:37;21.80;93.00
17728;DHT22;8984;49.268;12.302;2023-06-14T05:34:03;21.60;93.20
17728;DHT22;8984;49.268;12.302;2023-06-14T05:36:30;21.40;93.50
17728;DHT22;8984;49.268;12.302;2023-06-14T05:38:57;21.20;93.70
17728;DHT22;8984;49.268;12.302;2023-06-14T05:41:27;20.70;94.10
17728;DHT22;8984;49.268;12.302;2023-06-14T05:43:54;20.70;94.50
17728;DHT22;8984;49.268;12.302;2023-06-14T05:46:22;20.60;94.60
17728;DHT22;8984;49.268;12.302;2023-06-14T05:48:50;20.60;94.70
17728;DHT22;8984;49.268;12.302;2023-06-14T05:51:17;20.70;94.80
17728;DHT22;8984;49.268;12.302;2023-06-14T05:53:45;20.40;94.90
17728;DHT22;8984;49.268;12.302;2023-06-14T05:56:12;20.20;95.30
17728;DHT22;8984;49.268;12.302;2023-06-14T05:58:41;20.50;95.30
17728;DHT22;8984;49.268;12.302;2023-06-14T06:01:07;20.40;95.20
17728;DHT22;8984;49.268;12.302;2023-06-14T06:03:34;20.60;95.00
17728;DHT22;8984;49.268;12.302;2023-06-14T06:06:01;20.80;94.80
17728;DHT22;8984;49.268;12.302;2023-06-14T06:08:28;20.70;95.00
17728;DHT22;8984;49.268;12.302;2023-06-14T06:10:55;20.80;94.90
17728;DHT22;8984;49.268;12.302;2023-06-14T06:13:22;20.80;94.90
17728;DHT22;8984;49.268;12.302;2023-06-14T06:15:50;20.60;95.20
17728;DHT22;8984;49.268;12.302;2023-06-14T06:18:17;20.40;95.30
17728;DHT22;8984;49.268;12.302;2023-06-14T06:20:44;20.60;95.30
17728;DHT22;8984;49.268;12.302;2023-06-14T06:23:12;20.50;95.40
17728;DHT22;8984;49.268;12.302;2023-06-14T06:25:39;20.60;95.60
17728;DHT22;8984;49.268;12.302;2023-06-14T06:28:06;20.80;95.20
17728;DHT22;8984;49.268;12.302;2023-06-14T06:30:33;21.00;94.90
17728;DHT22;8984;49.268;12.302;2023-06-14T06:33:02;21.10;94.80
17728;DHT22;8984;49.268;12.302;2023-06-14T06:35:29;21.20;94.70
17728;DHT22;8984;49.268;12.302;2023-06-14T06:37:58;21.40;94.40
17728;DHT22;8984;49.268;12.302;2023-06-14T06:40:25;21.60;94.30
17728;DHT22;8984;49.268;12.302;2023-06-14T06:42:52;21.90;93.80
17728;DHT22;8984;49.268;12.302;2023-06-14T06:45:20;22.30;93.20
17728;DHT22;8984;49.268;12.302;2023-06-14T06:47:46;22.60;92.80
17728;DHT22;8984;49.268;12.302;2023-06-14T06:50:14;22.80;92.60
17728;DHT22;8984;49.268;12.302;2023-06-14T06:52:41;22.80;92.50
17728;DHT22;8984;49.268;12.302;2023-06-14T06:55:08;22.80;92.70
17728;DHT22;8984;49.268;12.302;2023-06-14T06:57:36;22.80;92.60
17728;DHT22;8984;49.268;12.302;2023-06-14T07:00:04;22.60;92.50
17728;DHT22;8984;49.268;12.302;2023-06-14T07:02:33;22.30;93.00
17728;DHT22;8984;49.268;12.302;2023-06-14T07:05:00;22.40;93.20
17728;DHT22;8984;49.268;12.302;2023-06-14T07:07:28;22.40;92.90
17728;DHT22;8984;49.268;12.302;2023-06-14T07:09:55;22.60;92.80
17728;DHT22;8984;49.268;12.302;2023-06-14T07:12:22;22.60;92.10
17728;DHT22;8984;49.268;12.302;2023-06-14T07:14:49;22.50;92.40
17728;DHT22;8984;49.268;12.302;2023-06-14T07:17:16;22.70;92.40
17728;DHT22;8984;49.268;12.302;2023-06-14T07:19:43;22.60;92.50
17728;DHT22;8984;49.268;12.302;2023-06-14T07:22:10;22.80;92.30
17728;DHT22;8984;49.268;12.302;2023-06-14T07:24:38;22.90;92.10
17728;DHT22;8984;49.268;12.302;2023-06-14T07:27:06;23.10;92.10
17728;DHT22;8984;49.268;12.302;2023-06-14T07:29:33;23.30;92.00
17728;DHT22;8984;49.268;12.302;2023-06-14T07:32:00;23.10;92.10
17728;DHT22;8984;49.268;12.302;2023-06-14T07:34:26;23.40;92.10
17728;DHT22;8984;49.268;12.302;2023-06-14T07:36:53;23.70;91.80
17728;DHT22;8984;49.268;12.302;2023-06-14T07:39:21;24.00;91.70
17728;DHT22;8984;49.268;12.302;2023-06-14T07:41:49;23.80;91.60
17728;DHT22;8984;49.268;12.302;2023-06-14T07:44:15;24.00;91.50
17728;DHT22;8984;49.268;12.302;2023-06-14T07:46:42;23.90;91.50
17728;DHT22;8984;49.268;12.302;2023-06-14T07:49:09;24.00;91.60
17728;DHT22;8984;49.268;12.302;2023-06-14T07:51:36;24.30;91.40
17728;DHT22;8984;49.268;12.302;2023-06-14T07:54:03;23.70;91.10
17728;DHT22;8984;49.268;12.302;2023-06-14T07:56:32;24.00;91.50
17728;DHT22;8984;49.268;12.302;2023-06-14T07:59:00;24.00;91.20
17728;DHT22;8984;49.268;12.302;2023-06-14T08:01:28;24.00;91.10
17728;DHT22;8984;49.268;12.302;2023-06-14T08:03:54;24.20;91.10
17728;DHT22;8984;49.268;12.302;2023-06-14T08:06:21;24.40;90.80
17728;DHT22;8984;49.268;12.302;2023-06-14T08:08:48;24.60;90.30
17728;DHT22;8984;49.268;12.302;2023-06-14T08:11:14;24.40;90.00
17728;DHT22;8984;49.268;12.302;2023-06-14T08:13:41;24.40;89.90
17728;DHT22;8984;49.268;12.302;2023-06-14T08:16:09;24.40;90.00
17728;DHT22;8984;49.268;12.302;2023-06-14T08:18:36;24.60;89.70
17728;DHT22;8984;49.268;12.302;2023-06-14T08:21:03;24.30;89.20
17728;DHT22;8984;49.268;12.302;2023-06-14T08:23:30;24.40;90.10
17728;DHT22;8984;49.268;12.302;2023-06-14T08:25:56;24.10;90.40
17728;DHT22;8984;49.268;12.302;2023-06-14T08:28:24;24.50;90.10
17728;DHT22;8984;49.268;12.302;2023-06-14T08:30:51;24.80;89.20
17728;DHT22;8984;49.268;12.302;2023-06-14T08:33:19;24.60;89.40
17728;DHT22;8984;49.268;12.302;2023-06-14T08:35:46;24.50;89.40
17728;DHT22;8984;49.268;12.302;2023-06-14T08:38:12;24.20;89.70
17728;DHT22;8984;49.268;12.302;2023-06-14T08:40:40;23.90;89.70
17728;DHT22;8984;49.268;12.302;2023-06-14T08:43:08;23.10;90.60
17728;DHT22;8984;49.268;12.302;2023-06-14T08:45:35;23.20;90.90
17728;DHT22;8984;49.268;12.302;2023-06-14T08:48:02;23.20;90.90
17728;DHT22;8984;49.268;12.302;2023-06-14T08:50:31;23.40;90.70
17728;DHT22;8984;49.268;12.302;2023-06-14T08:53:01;23.10;90.40
17728;DHT22;8984;49.268;12.302;2023-06-14T08:55:29;23.10;90.50
17728;DHT22;8984;49.268;12.302;2023-06-14T08:57:57;22.90;90.30
17728;DHT22;8984;49.268;12.302;2023-06-14T09:00:25;23.00;90.50
17728;DHT22;8984;49.268;12.302;2023-06-14T09:02:53;22.70;90.50
17728;DHT22;8984;49.268;12.302;2023-06-14T09:05:23;22.60;90.70
17728;DHT22;8984;49.268;12.302;2023-06-14T09:07:52;22.70;90.60
17728;DHT22;8984;49.268;12.302;2023-06-14T09:10:21;22.90;90.70
17728;DHT22;8984;49.268;12.302;2023-06-14T09:12:48;23.30;90.70
17728;DHT22;8984;49.268;12.302;2023-06-14T09:15:15;23.60;90.10
17728;DHT22;8984;49.268;12.302;2023-06-14T09:17:42;23.80;90.20
17728;DHT22;8984;49.268;12.302;2023-06-14T09:20:09;24.00;89.70
17728;DHT22;8984;49.268;12.302;2023-06-14T09:22:40;23.90;89.30
17728;DHT22;8984;49.268;12.302;2023-06-14T09:25:09;24.00;89.70
17728;DHT22;8984;49.268;12.302;2023-06-14T09:27:37;24.10;89.80
17728;DHT22;8984;49.268;12.302;2023-06-14T09:30:10;24.20;89.90
17728;DHT22;8984;49.268;12.302;2023-06-14T09:32:37;24.30;90.10
17728;DHT22;8984;49.268;12.302;2023-06-14T09:35:06;23.80;89.70
17728;DHT22;8984;49.268;12.302;2023-06-14T09:37:33;23.70;90.20
17728;DHT22;8984;49.268;12.302;2023-06-14T09:40:01;23.50;90.10
17728;DHT22;8984;49.268;12.302;2023-06-14T09:42:29;23.00;90.50
17728;DHT22;8984;49.268;12.302;2023-06-14T09:44:56;22.90;90.80
17728;DHT22;8984;49.268;12.302;2023-06-14T09:47:24;22.80;91.00
17728;DHT22;8984;49.268;12.302;2023-06-14T09:49:51;22.90;91.00
17728;DHT22;8984;49.268;12.302;2023-06-14T09:52:21;22.90;90.90
17728;DHT22;8984;49.268;12.302;2023-06-14T09:54:49;22.90;90.90
17728;DHT22;8984;49.268;12.302;2023-06-14T09:57:20;22.90;90.90
17728;DHT22;8984;49.268;12.302;2023-06-14T09:59:50;22.90;90.70
17728;DHT22;8984;49.268;12.302;2023-06-14T10:02:27;22.70;90.40
17728;DHT22;8984;49.268;12.302;2023-06-14T10:05:01;22.50;90.90
17728;DHT22;8984;49.268;12.302;2023-06-14T10:07:33;22.30;91.20
17728;DHT22;8984;49.268;12.302;2023-06-14T10:10:01;22.40;90.80
17728;DHT22;8984;49.268;12.302;2023-06-14T10:12:28;22.40;90.70
17728;DHT22;8984;49.268;12.302;2023-06-14T10:14:58;22.50;90.20
17728;DHT22;8984;49.268;12.302;2023-06-14T10:17:33;22.60;89.50
17728;DHT22;8984;49.268;12.302;2023-06-14T10:20:14;22.50;89.90
17728;DHT22;8984;49.268;12.302;2023-06-14T10:22:47;22.50;89.10
17728;DHT22;8984;49.268;12.302;2023-06-14T10:25:26;22.50;89.10
17728;DHT22;8984;49.268;12.302;2023-06-14T10:28:02;22.80;87.10
17728;DHT22;8984;49.268;12.302;2023-06-14T10:30:30;23.00;86.60
17728;DHT22;8984;49.268;12.302;2023-06-14T10:33:04;23.20;86.80
17728;DHT22;8984;49.268;12.302;2023-06-14T10:35:31;23.20;86.00
17728;DHT22;8984;49.268;12.302;2023-06-14T10:38:07;23.40;84.60
17728;DHT22;8984;49.268;12.302;2023-06-14T10:40:34;23.50;83.70
17728;DHT22;8984;49.268;12.302;2023-06-14T10:43:21;23.90;82.80
17728;DHT22;8984;49.268;12.302;2023-06-14T10:46:17;24.50;81.90
17728;DHT22;8984;49.268;12.302;2023-06-14T10:48:48;24.80;79.50
17728;DHT22;8984;49.268;12.302;2023-06-14T10:51:19;25.10;81.20
17728;DHT22;8984;49.268;12.302;2023-06-14T10:53:59;25.40;81.40
17728;DHT22;8984;49.268;12.302;2023-06-14T10:56:29;25.10;80.90
17728;DHT22;8984;49.268;12.302;2023-06-14T10:58:57;24.70;81.60
17728;DHT22;8984;49.268;12.302;2023-06-14T11:01:35;24.90;82.50
17728;DHT22;8984;49.268;12.302;2023-06-14T11:04:07;25.20;80.00
17728;DHT22;8984;49.268;12.302;2023-06-14T11:06:46;25.20;78.60
17728;DHT22;8984;49.268;12.302;2023-06-14T11:09:43;25.20;78.90
17728;DHT22;8984;49.268;12.302;2023-06-14T11:12:15;25.40;78.70
17728;DHT22;8984;49.268;12.302;2023-06-14T11:14:42;25.60;79.00
17728;DHT22;8984;49.268;12.302;2023-06-14T11:17:13;25.40;78.20
17728;DHT22;8984;49.268;12.302;2023-06-14T11:19:40;25.30;79.20
17728;DHT22;8984;49.268;12.302;2023-06-14T11:22:07;25.40;78.60
17728;DHT22;8984;49.268;12.302;2023-06-14T11:24:34;25.60;77.40
17728;DHT22;8984;49.268;12.302;2023-06-14T11:27:01;26.10;76.90
17728;DHT22;8984;49.268;12.302;2023-06-14T11:29:29;26.30;75.80
17728;DHT22;8984;49.268;12.302;2023-06-14T11:31:56;25.80;75.40
17728;DHT22;8984;49.268;12.302;2023-06-14T11:34:24;25.30;76.60
17728;DHT22;8984;49.268;12.302;2023-06-14T11:36:52;25.20;76.60
17728;DHT22;8984;49.268;12.302;2023-06-14T11:39:24;25.30;77.60
17728;DHT22;8984;49.268;12.302;2023-06-14T11:41:52;25.30;78.30
17728;DHT22;8984;49.268;12.302;2023-06-14T11:44:18;25.40;77.70
17728;DHT22;8984;49.268;12.302;2023-06-14T11:46:45;25.80;77.80
17728;DHT22;8984;49.268;12.302;2023-06-14T11:49:12;26.00;77.10
17728;DHT22;8984;49.268;12.302;2023-06-14T11:51:42;26.30;77.00
17728;DHT22;8984;49.268;12.302;2023-06-14T11:54:10;26.60;75.50
17728;DHT22;8984;49.268;12.302;2023-06-14T11:56:37;26.70;75.10
17728;DHT22;8984;49.268;12.302;2023-06-14T11:59:04;26.50;74.30
17728;DHT22;8984;49.268;12.302;2023-06-14T12:01:31;26.30;74.60
17728;DHT22;8984;49.268;12.302;2023-06-14T12:03:59;26.80;73.40
17728;DHT22;8984;49.268;12.302;2023-06-14T12:06:27;27.00;72.30
17728;DHT22;8984;49.268;12.302;2023-06-14T12:08:59;27.40;71.70
17728;DHT22;8984;49.268;12.302;2023-06-14T12:11:34;26.90;71.00
17728;DHT22;8984;49.268;12.302;2023-06-14T12:14:02;27.00;71.40
17728;DHT22;8984;49.268;12.302;2023-06-14T12:16:31;27.20;72.20
17728;DHT22;8984;49.268;12.302;2023-06-14T12:19:01;27.40;73.00
17728;DHT22;8984;49.268;12.302;2023-06-14T12:21:28;27.40;71.10
17728;DHT22;8984;49.268;12.302;2023-06-14T12:23:55;27.40;70.90
17728;DHT22;8984;49.268;12.302;2023-06-14T12:26:24;27.40;71.20
17728;DHT22;8984;49.268;12.302;2023-06-14T12:28:52;26.90;71.70
17728;DHT22;8984;49.268;12.302;2023-06-14T12:31:19;27.30;70.10
17728;DHT22;8984;49.268;12.302;2023-06-14T12:33:46;27.50;71.10
17728;DHT22;8984;49.268;12.302;2023-06-14T12:36:14;27.50;69.50
17728;DHT22;8984;49.268;12.302;2023-06-14T12:38:42;27.70;69.90
17728;DHT22;8984;49.268;12.302;2023-06-14T12:41:09;27.40;70.70
17728;DHT22;8984;49.268;12.302;2023-06-14T12:43:37;27.20;70.80
17728;DHT22;8984;49.268;12.302;2023-06-14T12:46:04;27.00;71.60
17728;DHT22;8984;49.268;12.302;2023-06-14T12:48:31;26.90;72.10
17728;DHT22;8984;49.268;12.302;2023-06-14T12:50:59;26.60;72.70
17728;DHT22;8984;49.268;12.302;2023-06-14T12:53:26;26.40;73.90
17728;DHT22;8984;49.268;12.302;2023-06-14T12:55:53;26.20;72.60
17728;DHT22;8984;49.268;12.302;2023-06-14T12:58:20;26.10;73.00
17728;DHT22;8984;49.268;12.302;2023-06-14T13:00:48;25.60;74.30
17728;DHT22;8984;49.268;12.302;2023-06-14T13:03:15;25.30;75.20
17728;DHT22;8984;49.268;12.302;2023-06-14T13:05:41;25.40;75.40
17728;DHT22;8984;49.268;12.302;2023-06-14T13:08:08;25.60;74.50
17728;DHT22;8984;49.268;12.302;2023-06-14T13:10:35;25.40;75.40
17728;DHT22;8984;49.268;12.302;2023-06-14T13:13:02;25.40;74.80
17728;DHT22;8984;49.268;12.302;2023-06-14T13:15:29;25.40;75.40
17728;DHT22;8984;49.268;12.302;2023-06-14T13:17:57;25.10;74.70
17728;DHT22;8984;49.268;12.302;2023-06-14T13:20:24;25.10;73.60
17728;DHT22;8984;49.268;12.302;2023-06-14T13:22:51;25.60;73.40
17728;DHT22;8984;49.268;12.302;2023-06-14T13:25:18;25.60;73.60
17728;DHT22;8984;49.268;12.302;2023-06-14T13:27:45;26.00;73.90
17728;DHT22;8984;49.268;12.302;2023-06-14T13:30:12;26.40;73.90
17728;DHT22;8984;49.268;12.302;2023-06-14T13:32:39;26.20;73.50
17728;DHT22;8984;49.268;12.302;2023-06-14T13:35:07;26.30;73.30
17728;DHT22;8984;49.268;12.302;2023-06-14T13:37:34;26.50;72.00
17728;DHT22;8984;49.268;12.302;2023-06-14T13:40:01;26.70;72.00
17728;DHT22;8984;49.268;12.302;2023-06-14T13:42:28;26.90;72.10
17728;DHT22;8984;49.268;12.302;2023-06-14T13:44:57;26.80;71.60
17728;DHT22;8984;49.268;12.302;2023-06-14T13:47:23;26.90;71.70
17728;DHT22;8984;49.268;12.302;2023-06-14T13:49:50;26.60;72.20
17728;DHT22;8984;49.268;12.302;2023-06-14T13:52:18;26.40;72.80
17728;DHT22;8984;49.268;12.302;2023-06-14T13:54:45;26.30;73.10
17728;DHT22;8984;49.268;12.302;2023-06-14T13:57:12;26.20;73.30
17728;DHT22;8984;49.268;12.302;2023-06-14T13:59:39;26.30;73.50
17728;DHT22;8984;49.268;12.302;2023-06-14T14:02:06;26.30;73.20
17728;DHT22;8984;49.268;12.302;2023-06-14T14:04:34;26.10;74.00
17728;DHT22;8984;49.268;12.302;2023-06-14T14:07:01;26.10;74.30
17728;DHT22;8984;49.268;12.302;2023-06-14T14:09:29;26.10;73.60
17728;DHT22;8984;49.268;12.302;2023-06-14T14:11:56;26.00;73.90
17728;DHT22;8984;49.268;12.302;2023-06-14T14:14:23;26.00;74.60
17728;DHT22;8984;49.268;12.302;2023-06-14T14:16:50;25.80;74.00
17728;DHT22;8984;49.268;12.302;2023-06-14T14:19:18;25.70;74.50
17728;DHT22;8984;49.268;12.302;2023-06-14T14:21:45;25.70;75.20
17728;DHT22;8984;49.268;12.302;2023-06-14T14:24:12;26.00;75.00
17728;DHT22;8984;49.268;12.302;2023-06-14T14:26:40;26.00;74.60
17728;DHT22;8984;49.268;12.302;2023-06-14T14:29:07;25.90;74.40
17728;DHT22;8984;49.268;12.302;2023-06-14T14:31:36;26.10;72.90
17728;DHT22;8984;49.268;12.302;2023-06-14T14:34:03;26.20;72.40
17728;DHT22;8984;49.268;12.302;2023-06-14T14:36:30;26.00;71.50
17728;DHT22;8984;49.268;12.302;2023-06-14T14:38:58;26.10;71.70
17728;DHT22;8984;49.268;12.302;2023-06-14T14:41:25;26.10;72.40
17728;DHT22;8984;49.268;12.302;2023-06-14T14:43:53;26.20;72.90
17728;DHT22;8984;49.268;12.302;2023-06-14T14:46:20;26.10;72.40
17728;DHT22;8984;49.268;12.302;2023-06-14T14:48:47;25.90;72.50
17728;DHT22;8984;49.268;12.302;2023-06-14T14:51:14;25.80;73.10
17728;DHT22;8984;49.268;12.302;2023-06-14T14:53:42;25.80;72.40
17728;DHT22;8984;49.268;12.302;2023-06-14T14:56:09;25.70;72.30
17728;DHT22;8984;49.268;12.302;2023-06-14T14:58:37;25.40;73.10
17728;DHT22;8984;49.268;12.302;2023-06-14T15:01:05;25.30;75.10
17728;DHT22;8984;49.268;12.302;2023-06-14T15:03:32;25.30;74.60
17728;DHT22;8984;49.268;12.302;2023-06-14T15:05:59;25.10;74.40
17728;DHT22;8984;49.268;12.302;2023-06-14T15:08:26;24.90;74.40
17728;DHT22;8984;49.268;12.302;2023-06-14T15:10:53;24.90;75.30
17728;DHT22;8984;49.268;12.302;2023-06-14T15:13:19;24.60;76.50
17728;DHT22;8984;49.268;12.302;2023-06-14T15:15:48;24.60;76.70
17728;DHT22;8984;49.268;12.302;2023-06-14T15:18:16;24.80;76.50
17728;DHT22;8984;49.268;12.302;2023-06-14T15:20:45;25.00;76.70
17728;DHT22;8984;49.268;12.302;2023-06-14T15:23:12;25.10;76.00
17728;DHT22;8984;49.268;12.302;2023-06-14T15:25:45;25.20;76.00
17728;DHT22;8984;49.268;12.302;2023-06-14T15:28:12;25.10;76.60
17728;DHT22;8984;49.268;12.302;2023-06-14T15:30:38;24.90;76.30
17728;DHT22;8984;49.268;12.302;2023-06-14T15:33:05;24.70;76.30
17728;DHT22;8984;49.268;12.302;2023-06-14T15:35:33;24.50;75.70